Boiceville, NY

1:04 PM EDT on August 28, 2016 (GMT -0400)
Woodland Valley | | Change Station

Elev 1240 ft 42.04 °N, 74.34 °W | Updated 6 days ago

Clear
Clear
84 °F
Feels Like 86 °F
N
9
Wind Variable Wind from SSW
Gusts mph

Today
High -- | Low -- °F
--% Chance of Precip.
Yesterday
High -- | Low -- °F
Precip. -- in
Pressure 30.22 in
Visibility 10.0 miles
Clouds Clear
Heat Index 86 °F
Dew Point 64 °F
Humidity 51%
Rainfall in
Snow Depth Not available.
6:18 AM 7:36 PM
Waning Crescent, 14% visible
METAR KPOU 281653Z 22006KT 10SM CLR 28/17 A3022 RMK AO2 SLP231 T02830172
Pressure 30.22 in
Visibility 10.0 miles
Clouds Clear
Heat Index 86 °F
Dew Point 64 °F
Humidity 51%
Rainfall in
Snow Depth Not available.
6:18 AM 7:36 PM
Waning Crescent, 14% visible
METAR KPOU 281653Z 22006KT 10SM CLR 28/17 A3022 RMK AO2 SLP231 T02830172

10-Day Weather Forecast

Almanac

Astronomy

Aug. 28, 2016 Rise Set
Actual Time
Civil Twilight
Nautical Twilight
Astronomical Twilight
Moon
Length of Visible Light
Length of Day
Tomorrow will be .
, % of the Moon is Illuminated

Today's Extremes

State Highs State Lows

Community

WunderPhotos

Upload Photos

1,935,627 photos uploaded!

WunderBlog® & News

Nearby

Air Quality

  Air Quality AQ Index Pollutant
Not available.

Snow Depth

Station Depth Elevation

Earthquake Activity

City Distance Mag. Time & Date
Minimum magnitude displayed is 2.5.

Coastal Water Temperatures

Place Temperature

Stations

Nearby Weather Stations

Station Location Temp. Windchill Dew Point Humidity Wind Precip. Elev Updated Type
                   

Watches & Warnings

There are currently no watches in effect.